PWSweather.com
Personal Weather Stations
Station Observations
J24K28P63
Vysocina, PocatkyCZ 39464

VysocinaPocatkyCZ 39464

Lat: 49.2594238, Lon: 15.2331769

Elevation: 2011

Station Type: Vantage Pro2+

http://meteo-jirkalina.com

High Low Average
Temperature 88.1°F31.2°C 60.4°F15.8°C 75.5°F24.2°C
Dew Point 71.7°F22.1°C 50.1°F10.1°C 63.1°F17.3°C
Winds 10.7 mph 17.2 kmh Calm Calm 3.0 mph WSW4.8 kmh WSW
Wind Gusts 17.0 mph27.4 kmh -- 6.0 mph9.7 kmh
Humidity 97% 32% 68%
Pressure 30.04 in1017.3 mb 29.91 in1012.9 mb -
Precipitation 0.16 in4.1 mm - -
Hour Temp Dew Point Humidity Winds Wind Gusts Pressure Precip Precip Rate Daily Precip Total
12:00 AM 65.5°F18.6°C 60.2°F15.7°C 83% Calm Calm -- 29.91 in1012.9 mb - 0.00 in0.0 mm 0.00 in0.0 mm
12:30 AM 64.7°F18.2°C 60.4°F15.8°C 86% Calm Calm -- 29.91 in1012.9 mb - 0.00 in0.0 mm 0.00 in0.0 mm
01:00 AM 63.7°F17.6°C 59.8°F15.4°C 87% Calm Calm -- 29.91 in1012.9 mb - 0.00 in0.0 mm 0.00 in0.0 mm
01:30 AM 63.1°F17.3°C 59.5°F15.3°C 88% Calm Calm -- 29.91 in1012.9 mb - 0.00 in0.0 mm 0.00 in0.0 mm
02:00 AM 62.4°F16.9°C 59.1°F15.1°C 89% Calm Calm -- 29.91 in1012.9 mb - 0.00 in0.0 mm 0.00 in0.0 mm
02:30 AM 61.8°F16.6°C 59.1°F15.1°C 91% Calm Calm -- 29.91 in1012.9 mb - 0.00 in0.0 mm 0.00 in0.0 mm
03:00 AM 61.3°F16.3°C 59.0°F15.0°C 92% Calm Calm -- 29.91 in1012.9 mb - 0.00 in0.0 mm 0.00 in0.0 mm
03:30 AM 61.0°F16.1°C 59.3°F15.2°C 94% Calm Calm -- 29.91 in1012.9 mb - 0.00 in0.0 mm 0.00 in0.0 mm
04:00 AM 60.9°F16.1°C 59.5°F15.3°C 95% Calm Calm -- 29.91 in1012.9 mb - 0.00 in0.0 mm 0.00 in0.0 mm
04:30 AM 60.5°F15.8°C 59.1°F15.1°C 95% Calm Calm -- 29.91 in1012.9 mb - 0.00 in0.0 mm 0.00 in0.0 mm
05:00 AM 60.4°F15.8°C 59.3°F15.2°C 96% Calm Calm -- 29.91 in1012.9 mb - 0.00 in0.0 mm 0.00 in0.0 mm
05:10 AM 68.9°F20.5°C 61.4°F16.3°C 77% Calm Calm -- 29.96 in1014.6 mb - 0.00 in0.0 mm 0.00 in0.0 mm
05:20 AM 69.2°F20.7°C 62.0°F16.7°C 78% Calm Calm -- 29.96 in1014.6 mb - 0.00 in0.0 mm 0.00 in0.0 mm
05:30 AM 69.6°F20.9°C 62.0°F16.7°C 77% Calm Calm -- 29.96 in1014.6 mb - 0.00 in0.0 mm 0.00 in0.0 mm
05:40 AM 69.8°F21.0°C 62.6°F17.0°C 78% Calm Calm 1.0 mph1.6 kmh 29.96 in1014.6 mb - 0.00 in0.0 mm 0.00 in0.0 mm
05:50 AM 71.7°F22.1°C 63.7°F17.6°C 76% 5.0 mph W8.0 kmh W 8.0 mph12.9 kmh 29.96 in1014.6 mb - 0.00 in0.0 mm 0.00 in0.0 mm
06:00 AM 73.5°F23.1°C 63.9°F17.7°C 72% 7.0 mph W11.3 kmh W 9.0 mph14.5 kmh 29.97 in1014.9 mb - 0.00 in0.0 mm 0.00 in0.0 mm
06:10 AM 73.7°F23.2°C 64.1°F17.8°C 72% 10.0 mph WNW16.1 kmh WNW 14.0 mph22.5 kmh 29.99 in1015.6 mb - 0.00 in0.0 mm 0.00 in0.0 mm
06:20 AM 73.6°F23.1°C 64.4°F18.0°C 73% 7.0 mph NW11.3 kmh NW 8.0 mph12.9 kmh 29.99 in1015.6 mb - 0.00 in0.0 mm 0.00 in0.0 mm
06:30 AM 64.5°F18.1°C 62.2°F16.8°C 92% Calm Calm -- 29.92 in1013.2 mb - 0.00 in0.0 mm 0.00 in0.0 mm
06:40 AM 73.5°F23.1°C 63.9°F17.7°C 72% 9.0 mph NW14.5 kmh NW 13.0 mph20.9 kmh 30.01 in1016.3 mb - 0.00 in0.0 mm 0.00 in0.0 mm
07:00 AM 68.9°F20.5°C 65.2°F18.4°C 88% 1.0 mph WSW1.6 kmh WSW 2.0 mph3.2 kmh 30.04 in1017.3 mb - 0.09 in2.3 mm 0.10 in2.5 mm
07:10 AM 67.9°F19.9°C 65.5°F18.6°C 92% Calm Calm -- 30.03 in1016.9 mb - 0.03 in0.8 mm 0.13 in3.3 mm
07:20 AM 68.3°F20.2°C 66.5°F19.2°C 94% 1.0 mph WSW1.6 kmh WSW 3.0 mph4.8 kmh 30.02 in1016.6 mb - 0.02 in0.5 mm 0.14 in3.6 mm
07:30 AM 70.1°F21.2°C 62.6°F17.0°C 77% Calm Calm -- 29.92 in1013.2 mb - 0.00 in0.0 mm 0.14 in3.6 mm
07:40 AM 68.5°F20.3°C 67.3°F19.6°C 96% Calm Calm -- 30.01 in1016.3 mb - 0.02 in0.5 mm 0.16 in4.1 mm
07:50 AM 68.1°F20.1°C 66.9°F19.4°C 96% Calm Calm -- 30.01 in1016.3 mb - 0.00 in0.0 mm 0.16 in4.1 mm
08:00 AM 68.3°F20.2°C 67.5°F19.7°C 97% 1.0 mph WSW1.6 kmh WSW 1.0 mph1.6 kmh 30.02 in1016.6 mb - 0.00 in0.0 mm 0.16 in4.1 mm
08:10 AM 68.8°F20.4°C 67.9°F19.9°C 97% Calm Calm -- 30.02 in1016.6 mb - 0.00 in0.0 mm 0.16 in4.1 mm
08:20 AM 69.5°F20.8°C 68.6°F20.3°C 97% Calm Calm 2.0 mph3.2 kmh 30.03 in1016.9 mb - 0.00 in0.0 mm 0.16 in4.1 mm
08:30 AM 70.1°F21.2°C 69.2°F20.7°C 97% 1.0 mph WSW1.6 kmh WSW 2.0 mph3.2 kmh 30.03 in1016.9 mb - 0.00 in0.0 mm 0.16 in4.1 mm
08:40 AM 71.1°F21.7°C 70.2°F21.2°C 97% 1.0 mph WSW1.6 kmh WSW 2.0 mph3.2 kmh 30.03 in1016.9 mb - 0.00 in0.0 mm 0.16 in4.1 mm
08:50 AM 71.2°F21.8°C 70.0°F21.1°C 96% 3.0 mph WSW4.8 kmh WSW 3.0 mph4.8 kmh 30.03 in1016.9 mb - 0.00 in0.0 mm 0.16 in4.1 mm
09:00 AM 73.2°F22.9°C 71.7°F22.1°C 95% 2.0 mph NW3.2 kmh NW 2.0 mph3.2 kmh 30.04 in1017.3 mb - 0.00 in0.0 mm 0.16 in4.1 mm
09:10 AM 74.1°F23.4°C 70.9°F21.6°C 90% 2.0 mph NW3.2 kmh NW 3.0 mph4.8 kmh 30.04 in1017.3 mb - 0.00 in0.0 mm 0.16 in4.1 mm
09:20 AM 74.1°F23.4°C 70.0°F21.1°C 87% 3.0 mph NW4.8 kmh NW 5.0 mph8.0 kmh 30.04 in1017.3 mb - 0.00 in0.0 mm 0.16 in4.1 mm
09:30 AM 75.0°F23.9°C 70.2°F21.2°C 85% 1.0 mph NW1.6 kmh NW 3.0 mph4.8 kmh 30.04 in1017.3 mb - 0.00 in0.0 mm 0.16 in4.1 mm
09:40 AM 76.0°F24.4°C 69.0°F20.6°C 79% 3.0 mph NW4.8 kmh NW 3.0 mph4.8 kmh 30.04 in1017.3 mb - 0.00 in0.0 mm 0.16 in4.1 mm
09:50 AM 77.4°F25.2°C 70.4°F21.3°C 79% 1.0 mph NW1.6 kmh NW 3.0 mph4.8 kmh 30.04 in1017.3 mb - 0.00 in0.0 mm 0.16 in4.1 mm
10:00 AM 78.2°F25.7°C 69.6°F20.9°C 75% 1.0 mph NW1.6 kmh NW 3.0 mph4.8 kmh 30.04 in1017.3 mb - 0.00 in0.0 mm 0.16 in4.1 mm
10:10 AM 78.7°F25.9°C 69.4°F20.8°C 73% 1.0 mph NNE1.6 kmh NNE 1.0 mph1.6 kmh 30.04 in1017.3 mb - 0.00 in0.0 mm 0.16 in4.1 mm
10:20 AM 79.7°F26.5°C 69.9°F21.1°C 72% 3.0 mph WNW4.8 kmh WNW 5.0 mph8.0 kmh 30.04 in1017.3 mb - 0.00 in0.0 mm 0.16 in4.1 mm
10:30 AM 73.5°F23.1°C 54.8°F12.7°C 52% 10.7 mph NE17.2 kmh NE 17.0 mph27.4 kmh 29.98 in1015.2 mb - 0.00 in0.0 mm 0.16 in4.1 mm
10:40 AM 82.2°F27.9°C 70.1°F21.2°C 67% 3.0 mph NW4.8 kmh NW 5.0 mph8.0 kmh 30.04 in1017.3 mb - 0.00 in0.0 mm 0.16 in4.1 mm
10:50 AM 81.4°F27.4°C 67.6°F19.8°C 63% 1.0 mph WNW1.6 kmh WNW 1.0 mph1.6 kmh 30.04 in1017.3 mb - 0.00 in0.0 mm 0.16 in4.1 mm
11:00 AM 82.5°F28.1°C 68.7°F20.4°C 63% 1.0 mph WNW1.6 kmh WNW 3.0 mph4.8 kmh 30.04 in1017.3 mb - 0.00 in0.0 mm 0.16 in4.1 mm
11:10 AM 83.3°F28.5°C 68.0°F20.0°C 60% 5.0 mph NW8.0 kmh NW 6.0 mph9.7 kmh 30.03 in1016.9 mb - 0.00 in0.0 mm 0.16 in4.1 mm
11:20 AM 84.4°F29.1°C 68.5°F20.3°C 59% Calm Calm 1.0 mph1.6 kmh 30.03 in1016.9 mb - 0.00 in0.0 mm 0.16 in4.1 mm
11:30 AM 73.7°F23.2°C 55.5°F13.1°C 53% 8.8 mph NNE14.2 kmh NNE 12.0 mph19.3 kmh 29.99 in1015.6 mb - 0.00 in0.0 mm 0.16 in4.1 mm
11:40 AM 85.2°F29.6°C 67.2°F19.6°C 55% 2.0 mph N3.2 kmh N 8.0 mph12.9 kmh 30.02 in1016.6 mb - 0.00 in0.0 mm 0.16 in4.1 mm
11:50 AM 86.2°F30.1°C 66.5°F19.2°C 52% 2.0 mph N3.2 kmh N 8.0 mph12.9 kmh 30.02 in1016.6 mb - 0.00 in0.0 mm 0.16 in4.1 mm
12:00 PM 86.1°F30.1°C 66.4°F19.1°C 52% 3.0 mph NW4.8 kmh NW 6.0 mph9.7 kmh 30.02 in1016.6 mb - 0.00 in0.0 mm 0.16 in4.1 mm
12:10 PM 85.7°F29.8°C 67.1°F19.5°C 54% 6.0 mph WNW9.7 kmh WNW 8.0 mph12.9 kmh 30.01 in1016.3 mb - 0.00 in0.0 mm 0.16 in4.1 mm
12:20 PM 86.9°F30.5°C 67.2°F19.6°C 52% 1.0 mph NW1.6 kmh NW 1.0 mph1.6 kmh 30.01 in1016.3 mb - 0.00 in0.0 mm 0.16 in4.1 mm
12:30 PM 76.9°F24.9°C 52.0°F11.1°C 42% 1.1 mph NE1.8 kmh NE 5.0 mph8.0 kmh 29.96 in1014.6 mb - 0.00 in0.0 mm 0.16 in4.1 mm
12:40 PM 84.0°F28.9°C 65.6°F18.7°C 54% 2.0 mph N3.2 kmh N 8.0 mph12.9 kmh 30.02 in1016.6 mb - 0.00 in0.0 mm 0.16 in4.1 mm
12:50 PM 82.7°F28.2°C 64.9°F18.3°C 55% 2.0 mph NW3.2 kmh NW 5.0 mph8.0 kmh 30.02 in1016.6 mb - 0.00 in0.0 mm 0.16 in4.1 mm
01:00 PM 81.5°F27.5°C 63.8°F17.7°C 55% 3.0 mph NW4.8 kmh NW 6.0 mph9.7 kmh 30.02 in1016.6 mb - 0.00 in0.0 mm 0.16 in4.1 mm
01:10 PM 79.1°F26.2°C 66.7°F19.3°C 66% 10.0 mph SW16.1 kmh SW 15.0 mph24.1 kmh 30.02 in1016.6 mb - 0.00 in0.0 mm 0.16 in4.1 mm
01:20 PM 76.2°F24.6°C 66.9°F19.4°C 73% 8.0 mph SW12.9 kmh SW 13.0 mph20.9 kmh 30.03 in1016.9 mb - 0.00 in0.0 mm 0.16 in4.1 mm
01:30 PM 75.9°F24.4°C 66.2°F19.0°C 72% 7.0 mph WSW11.3 kmh WSW 12.0 mph19.3 kmh 30.02 in1016.6 mb - 0.00 in0.0 mm 0.16 in4.1 mm
01:40 PM 76.0°F24.4°C 66.7°F19.3°C 73% 8.0 mph WSW12.9 kmh WSW 12.0 mph19.3 kmh 30.02 in1016.6 mb - 0.00 in0.0 mm 0.16 in4.1 mm
01:50 PM 77.2°F25.1°C 68.3°F20.2°C 74% 7.0 mph SW11.3 kmh SW 9.0 mph14.5 kmh 30.02 in1016.6 mb - 0.00 in0.0 mm 0.16 in4.1 mm
02:00 PM 80.1°F26.7°C 69.8°F21.0°C 71% 7.0 mph SW11.3 kmh SW 12.0 mph19.3 kmh 30.02 in1016.6 mb - 0.00 in0.0 mm 0.16 in4.1 mm
02:10 PM 81.7°F27.6°C 68.8°F20.4°C 65% 5.0 mph WSW8.0 kmh WSW 10.0 mph16.1 kmh 30.02 in1016.6 mb - 0.00 in0.0 mm 0.16 in4.1 mm
02:20 PM 82.6°F28.1°C 67.8°F19.9°C 61% 5.0 mph W8.0 kmh W 10.0 mph16.1 kmh 30.01 in1016.3 mb - 0.00 in0.0 mm 0.16 in4.1 mm
02:30 PM 83.6°F28.7°C 50.6°F10.3°C 32% 2.2 mph NNE3.5 kmh NNE 7.0 mph11.3 kmh 29.95 in1014.2 mb - 0.00 in0.0 mm 0.16 in4.1 mm
02:40 PM 86.2°F30.1°C 67.0°F19.4°C 53% 3.0 mph SW4.8 kmh SW 8.0 mph12.9 kmh 30.01 in1016.3 mb - 0.00 in0.0 mm 0.16 in4.1 mm
02:50 PM 86.8°F30.4°C 67.6°F19.8°C 53% 7.0 mph W11.3 kmh W 14.0 mph22.5 kmh 30.01 in1016.3 mb - 0.00 in0.0 mm 0.16 in4.1 mm
03:00 PM 87.0°F30.6°C 67.8°F19.9°C 53% 3.0 mph WSW4.8 kmh WSW 3.0 mph4.8 kmh 30.00 in1015.9 mb - 0.00 in0.0 mm 0.16 in4.1 mm
03:10 PM 85.8°F29.9°C 62.6°F17.0°C 46% 6.0 mph NNW9.7 kmh NNW 12.0 mph19.3 kmh 30.00 in1015.9 mb - 0.00 in0.0 mm 0.16 in4.1 mm
03:20 PM 84.6°F29.2°C 61.5°F16.4°C 46% 6.0 mph W9.7 kmh W 9.0 mph14.5 kmh 30.00 in1015.9 mb - 0.00 in0.0 mm 0.16 in4.1 mm
03:30 PM 82.6°F28.1°C 50.6°F10.3°C 33% 4.0 mph NNW6.4 kmh NNW 6.0 mph9.7 kmh 29.95 in1014.2 mb - 0.00 in0.0 mm 0.16 in4.1 mm
03:40 PM 86.2°F30.1°C 63.0°F17.2°C 46% 6.0 mph WSW9.7 kmh WSW 9.0 mph14.5 kmh 30.00 in1015.9 mb - 0.00 in0.0 mm 0.16 in4.1 mm
03:50 PM 88.1°F31.2°C 62.8°F17.1°C 43% 7.0 mph W11.3 kmh W 12.0 mph19.3 kmh 30.00 in1015.9 mb - 0.00 in0.0 mm 0.16 in4.1 mm
04:00 PM 87.9°F31.1°C 62.0°F16.7°C 42% 7.0 mph NW11.3 kmh NW 12.0 mph19.3 kmh 30.00 in1015.9 mb - 0.00 in0.0 mm 0.16 in4.1 mm
04:10 PM 84.8°F29.3°C 61.7°F16.5°C 46% 7.0 mph NW11.3 kmh NW 9.0 mph14.5 kmh 29.99 in1015.6 mb - 0.00 in0.0 mm 0.16 in4.1 mm
04:20 PM 86.2°F30.1°C 61.8°F16.6°C 44% 5.0 mph NNW8.0 kmh NNW 10.0 mph16.1 kmh 29.99 in1015.6 mb - 0.00 in0.0 mm 0.16 in4.1 mm
04:30 PM 83.0°F28.3°C 50.1°F10.1°C 32% 2.2 mph NNE3.5 kmh NNE 11.0 mph17.7 kmh 29.94 in1013.9 mb - 0.00 in0.0 mm 0.16 in4.1 mm
04:40 PM 82.4°F28.0°C 61.3°F16.3°C 49% 7.0 mph WNW11.3 kmh WNW 10.0 mph16.1 kmh 29.99 in1015.6 mb - 0.00 in0.0 mm 0.16 in4.1 mm
04:50 PM 83.9°F28.8°C 61.6°F16.4°C 47% 9.0 mph NW14.5 kmh NW 12.0 mph19.3 kmh 29.99 in1015.6 mb - 0.00 in0.0 mm 0.16 in4.1 mm
05:00 PM 84.3°F29.1°C 61.9°F16.6°C 47% 8.0 mph NW12.9 kmh NW 10.0 mph16.1 kmh 30.00 in1015.9 mb - 0.00 in0.0 mm 0.16 in4.1 mm
05:10 PM 84.0°F28.9°C 61.6°F16.4°C 47% 9.0 mph NW14.5 kmh NW 12.0 mph19.3 kmh 30.00 in1015.9 mb - 0.00 in0.0 mm 0.16 in4.1 mm
05:20 PM 84.0°F28.9°C 61.6°F16.4°C 47% 6.0 mph N9.7 kmh N 12.0 mph19.3 kmh 30.00 in1015.9 mb - 0.00 in0.0 mm 0.16 in4.1 mm
05:30 PM 78.6°F25.9°C 53.6°F12.0°C 42% 2.7 mph N4.3 kmh N 7.0 mph11.3 kmh 29.95 in1014.2 mb - 0.00 in0.0 mm 0.16 in4.1 mm
05:40 PM 82.4°F28.0°C 60.7°F15.9°C 48% 7.0 mph NNW11.3 kmh NNW 9.0 mph14.5 kmh 30.00 in1015.9 mb - 0.00 in0.0 mm 0.16 in4.1 mm
05:50 PM 81.6°F27.6°C 61.2°F16.2°C 50% 5.0 mph NW8.0 kmh NW 12.0 mph19.3 kmh 30.00 in1015.9 mb - 0.00 in0.0 mm 0.16 in4.1 mm
06:00 PM 80.7°F27.1°C 60.9°F16.1°C 51% 6.0 mph NW9.7 kmh NW 12.0 mph19.3 kmh 30.01 in1016.3 mb - 0.00 in0.0 mm 0.16 in4.1 mm
06:10 PM 79.8°F26.6°C 60.1°F15.6°C 51% 7.0 mph NW11.3 kmh NW 10.0 mph16.1 kmh 30.01 in1016.3 mb - 0.00 in0.0 mm 0.16 in4.1 mm
06:20 PM 78.9°F26.1°C 60.9°F16.1°C 54% 6.0 mph NW9.7 kmh NW 10.0 mph16.1 kmh 30.01 in1016.3 mb - 0.00 in0.0 mm 0.16 in4.1 mm
06:30 PM 78.4°F25.8°C 59.9°F15.5°C 53% 7.0 mph NW11.3 kmh NW 13.0 mph20.9 kmh 30.02 in1016.6 mb - 0.00 in0.0 mm 0.16 in4.1 mm
06:40 PM 77.8°F25.4°C 59.8°F15.4°C 54% 6.0 mph NW9.7 kmh NW 10.0 mph16.1 kmh 30.02 in1016.6 mb - 0.00 in0.0 mm 0.16 in4.1 mm
06:50 PM 77.3°F25.2°C 59.8°F15.4°C 55% 6.0 mph NW9.7 kmh NW 12.0 mph19.3 kmh 30.02 in1016.6 mb - 0.00 in0.0 mm 0.16 in4.1 mm
07:00 PM 76.5°F24.7°C 59.6°F15.3°C 56% 6.0 mph N9.7 kmh N 9.0 mph14.5 kmh 30.03 in1016.9 mb - 0.00 in0.0 mm 0.16 in4.1 mm
07:10 PM 76.0°F24.4°C 59.2°F15.1°C 56% 6.0 mph NW9.7 kmh NW 9.0 mph14.5 kmh 30.03 in1016.9 mb - 0.00 in0.0 mm 0.16 in4.1 mm
07:20 PM 75.7°F24.3°C 58.9°F14.9°C 56% 6.0 mph NW9.7 kmh NW 9.0 mph14.5 kmh 30.03 in1016.9 mb - 0.00 in0.0 mm 0.16 in4.1 mm
07:30 PM 71.5°F21.9°C 53.5°F11.9°C 53% Calm Calm -- 29.96 in1014.6 mb - 0.00 in0.0 mm 0.16 in4.1 mm
08:00 PM 68.9°F20.5°C 54.9°F12.7°C 61% Calm Calm -- 29.97 in1014.9 mb - 0.00 in0.0 mm 0.16 in4.1 mm
08:30 PM 66.9°F19.4°C 57.2°F14.0°C 71% Calm Calm -- 29.98 in1015.2 mb - 0.00 in0.0 mm 0.16 in4.1 mm
09:00 PM 65.8°F18.8°C 59.1°F15.1°C 79% Calm Calm -- 29.98 in1015.2 mb - 0.00 in0.0 mm 0.16 in4.1 mm
09:30 PM 64.8°F18.2°C 59.2°F15.1°C 82% Calm Calm -- 29.99 in1015.6 mb - 0.00 in0.0 mm 0.16 in4.1 mm
10:00 PM 64.7°F18.2°C 58.8°F14.9°C 81% 0.7 mph NE1.1 kmh NE 4.0 mph6.4 kmh 29.99 in1015.6 mb - 0.00 in0.0 mm 0.16 in4.1 mm
10:30 PM 66.8°F19.3°C 58.2°F14.6°C 74% 3.0 mph NE4.8 kmh NE 5.0 mph8.0 kmh 30.00 in1015.9 mb - 0.00 in0.0 mm 0.16 in4.1 mm
11:00 PM 66.1°F18.9°C 57.9°F14.4°C 75% 2.7 mph NE4.3 kmh NE 3.0 mph4.8 kmh 30.00 in1015.9 mb - 0.00 in0.0 mm 0.16 in4.1 mm
11:30 PM 65.6°F18.7°C 57.5°F14.2°C 75% 1.7 mph NNE2.7 kmh NNE 3.0 mph4.8 kmh 30.01 in1016.3 mb - 0.00 in0.0 mm 0.16 in4.1 mm